sensor_id;sensor_type;location;lat;lon;timestamp;temperature;humidity
10314;DHT22;5202;49.138;10.090;2022-08-14T00:02:24;19.70;72.90
10314;DHT22;5202;49.138;10.090;2022-08-14T00:04:57;19.70;73.20
10314;DHT22;5202;49.138;10.090;2022-08-14T00:07:27;19.60;73.40
10314;DHT22;5202;49.138;10.090;2022-08-14T00:09:56;19.60;73.60
10314;DHT22;5202;49.138;10.090;2022-08-14T00:12:47;19.40;74.00
10314;DHT22;5202;49.138;10.090;2022-08-14T00:15:25;19.30;74.40
10314;DHT22;5202;49.138;10.090;2022-08-14T00:18:12;19.20;74.90
10314;DHT22;5202;49.138;10.090;2022-08-14T00:21:03;19.20;75.30
10314;DHT22;5202;49.138;10.090;2022-08-14T00:23:38;19.20;75.20
10314;DHT22;5202;49.138;10.090;2022-08-14T00:26:07;19.20;75.20
10314;DHT22;5202;49.138;10.090;2022-08-14T00:28:48;19.20;75.20
10314;DHT22;5202;49.138;10.090;2022-08-14T00:31:17;19.10;75.20
10314;DHT22;5202;49.138;10.090;2022-08-14T00:34:00;19.00;75.10
10314;DHT22;5202;49.138;10.090;2022-08-14T00:36:48;18.70;75.40
10314;DHT22;5202;49.138;10.090;2022-08-14T00:39:18;18.60;76.50
10314;DHT22;5202;49.138;10.090;2022-08-14T00:41:47;18.40;76.00
10314;DHT22;5202;49.138;10.090;2022-08-14T00:44:15;18.30;76.20
10314;DHT22;5202;49.138;10.090;2022-08-14T00:46:59;18.20;76.40
10314;DHT22;5202;49.138;10.090;2022-08-14T00:49:29;18.10;76.50
10314;DHT22;5202;49.138;10.090;2022-08-14T00:52:12;18.00;76.80
10314;DHT22;5202;49.138;10.090;2022-08-14T00:54:48;17.90;77.10
10314;DHT22;5202;49.138;10.090;2022-08-14T00:57:31;17.80;77.40
10314;DHT22;5202;49.138;10.090;2022-08-14T01:00:03;17.70;77.20
10314;DHT22;5202;49.138;10.090;2022-08-14T01:02:53;17.80;77.20
10314;DHT22;5202;49.138;10.090;2022-08-14T01:05:24;17.70;77.00
10314;DHT22;5202;49.138;10.090;2022-08-14T01:08:07;17.70;77.20
10314;DHT22;5202;49.138;10.090;2022-08-14T01:10:58;17.80;76.90
10314;DHT22;5202;49.138;10.090;2022-08-14T01:13:31;17.70;76.50
10314;DHT22;5202;49.138;10.090;2022-08-14T01:16:10;17.70;76.40
10314;DHT22;5202;49.138;10.090;2022-08-14T01:18:41;17.60;76.40
10314;DHT22;5202;49.138;10.090;2022-08-14T01:21:32;17.50;75.80
10314;DHT22;5202;49.138;10.090;2022-08-14T01:24:13;17.30;76.20
10314;DHT22;5202;49.138;10.090;2022-08-14T01:26:57;17.20;77.30
10314;DHT22;5202;49.138;10.090;2022-08-14T01:29:28;17.10;77.90
10314;DHT22;5202;49.138;10.090;2022-08-14T01:32:23;17.00;78.20
10314;DHT22;5202;49.138;10.090;2022-08-14T01:34:55;16.90;78.10
10314;DHT22;5202;49.138;10.090;2022-08-14T01:37:46;16.90;78.40
10314;DHT22;5202;49.138;10.090;2022-08-14T01:40:23;16.80;78.70
10314;DHT22;5202;49.138;10.090;2022-08-14T01:43:08;16.80;78.90
10314;DHT22;5202;49.138;10.090;2022-08-14T01:45:48;16.80;79.30
10314;DHT22;5202;49.138;10.090;2022-08-14T01:48:32;16.70;79.50
10314;DHT22;5202;49.138;10.090;2022-08-14T01:51:04;16.70;79.80
10314;DHT22;5202;49.138;10.090;2022-08-14T01:53:49;16.80;80.20
10314;DHT22;5202;49.138;10.090;2022-08-14T01:56:23;16.80;80.00
10314;DHT22;5202;49.138;10.090;2022-08-14T01:59:07;16.80;80.00
10314;DHT22;5202;49.138;10.090;2022-08-14T02:02:09;16.90;79.90
10314;DHT22;5202;49.138;10.090;2022-08-14T02:04:46;16.90;80.50
10314;DHT22;5202;49.138;10.090;2022-08-14T02:07:23;16.90;80.80
10314;DHT22;5202;49.138;10.090;2022-08-14T02:10:13;16.80;80.30
10314;DHT22;5202;49.138;10.090;2022-08-14T02:12:44;16.80;80.20
10314;DHT22;5202;49.138;10.090;2022-08-14T02:15:23;16.60;80.70
10314;DHT22;5202;49.138;10.090;2022-08-14T02:17:52;16.50;80.80
10314;DHT22;5202;49.138;10.090;2022-08-14T02:20:20;16.50;81.20
10314;DHT22;5202;49.138;10.090;2022-08-14T02:22:49;16.50;81.10
10314;DHT22;5202;49.138;10.090;2022-08-14T02:25:22;16.50;80.60
10314;DHT22;5202;49.138;10.090;2022-08-14T02:27:55;16.50;78.90
10314;DHT22;5202;49.138;10.090;2022-08-14T02:30:44;16.20;78.20
10314;DHT22;5202;49.138;10.090;2022-08-14T02:33:12;16.10;79.10
10314;DHT22;5202;49.138;10.090;2022-08-14T02:35:42;15.90;80.10
10314;DHT22;5202;49.138;10.090;2022-08-14T02:38:19;15.90;80.80
10314;DHT22;5202;49.138;10.090;2022-08-14T02:41:01;16.00;81.30
10314;DHT22;5202;49.138;10.090;2022-08-14T02:43:37;15.90;81.50
10314;DHT22;5202;49.138;10.090;2022-08-14T02:46:14;15.90;82.80
10314;DHT22;5202;49.138;10.090;2022-08-14T02:48:53;16.00;83.10
10314;DHT22;5202;49.138;10.090;2022-08-14T02:51:32;16.00;83.20
10314;DHT22;5202;49.138;10.090;2022-08-14T02:54:03;16.00;82.00
10314;DHT22;5202;49.138;10.090;2022-08-14T02:56:38;15.90;81.70
10314;DHT22;5202;49.138;10.090;2022-08-14T02:59:28;15.90;81.60
10314;DHT22;5202;49.138;10.090;2022-08-14T03:02:00;15.80;81.90
10314;DHT22;5202;49.138;10.090;2022-08-14T03:04:31;15.70;82.40
10314;DHT22;5202;49.138;10.090;2022-08-14T03:07:00;15.50;82.80
10314;DHT22;5202;49.138;10.090;2022-08-14T03:09:34;15.60;82.60
10314;DHT22;5202;49.138;10.090;2022-08-14T03:12:26;15.60;82.50
10314;DHT22;5202;49.138;10.090;2022-08-14T03:14:59;15.60;82.90
10314;DHT22;5202;49.138;10.090;2022-08-14T03:17:31;15.50;83.00
10314;DHT22;5202;49.138;10.090;2022-08-14T03:20:20;15.50;83.20
10314;DHT22;5202;49.138;10.090;2022-08-14T03:22:49;15.50;83.30
10314;DHT22;5202;49.138;10.090;2022-08-14T03:25:18;15.50;83.20
10314;DHT22;5202;49.138;10.090;2022-08-14T03:27:50;15.60;83.80
10314;DHT22;5202;49.138;10.090;2022-08-14T03:30:25;15.70;84.00
10314;DHT22;5202;49.138;10.090;2022-08-14T03:33:08;15.70;83.40
10314;DHT22;5202;49.138;10.090;2022-08-14T03:35:38;15.70;83.70
10314;DHT22;5202;49.138;10.090;2022-08-14T03:38:27;15.80;83.80
10314;DHT22;5202;49.138;10.090;2022-08-14T03:41:18;15.90;85.50
10314;DHT22;5202;49.138;10.090;2022-08-14T03:43:52;15.90;85.00
10314;DHT22;5202;49.138;10.090;2022-08-14T03:46:28;15.80;86.30
10314;DHT22;5202;49.138;10.090;2022-08-14T03:49:20;15.70;86.70
10314;DHT22;5202;49.138;10.090;2022-08-14T03:51:56;15.70;86.30
10314;DHT22;5202;49.138;10.090;2022-08-14T03:54:27;15.70;86.20
10314;DHT22;5202;49.138;10.090;2022-08-14T03:56:56;15.70;86.80
10314;DHT22;5202;49.138;10.090;2022-08-14T03:59:31;15.70;84.00
10314;DHT22;5202;49.138;10.090;2022-08-14T04:02:01;15.60;82.10
10314;DHT22;5202;49.138;10.090;2022-08-14T04:04:50;15.40;81.70
10314;DHT22;5202;49.138;10.090;2022-08-14T04:07:19;15.20;82.80
10314;DHT22;5202;49.138;10.090;2022-08-14T04:09:48;15.00;84.10
10314;DHT22;5202;49.138;10.090;2022-08-14T04:12:19;15.00;84.30
10314;DHT22;5202;49.138;10.090;2022-08-14T04:14:53;15.10;85.00
10314;DHT22;5202;49.138;10.090;2022-08-14T04:17:22;15.00;86.00
10314;DHT22;5202;49.138;10.090;2022-08-14T04:19:52;15.10;87.80
10314;DHT22;5202;49.138;10.090;2022-08-14T04:22:22;15.20;87.90
10314;DHT22;5202;49.138;10.090;2022-08-14T04:24:51;15.20;85.80
10314;DHT22;5202;49.138;10.090;2022-08-14T04:27:19;15.20;85.20
10314;DHT22;5202;49.138;10.090;2022-08-14T04:29:49;15.10;86.10
10314;DHT22;5202;49.138;10.090;2022-08-14T04:32:19;15.10;85.50
10314;DHT22;5202;49.138;10.090;2022-08-14T04:35:09;15.10;85.90
10314;DHT22;5202;49.138;10.090;2022-08-14T04:37:44;15.00;85.50
10314;DHT22;5202;49.138;10.090;2022-08-14T04:40:49;14.90;85.60
10314;DHT22;5202;49.138;10.090;2022-08-14T04:43:36;15.00;85.90
10314;DHT22;5202;49.138;10.090;2022-08-14T04:46:08;14.90;85.80
10314;DHT22;5202;49.138;10.090;2022-08-14T04:48:58;15.00;86.20
10314;DHT22;5202;49.138;10.090;2022-08-14T04:51:27;15.00;86.60
10314;DHT22;5202;49.138;10.090;2022-08-14T04:54:13;15.00;86.60
10314;DHT22;5202;49.138;10.090;2022-08-14T04:56:43;15.00;86.80
10314;DHT22;5202;49.138;10.090;2022-08-14T04:59:11;15.00;87.10
10314;DHT22;5202;49.138;10.090;2022-08-14T05:01:41;14.90;87.10
10314;DHT22;5202;49.138;10.090;2022-08-14T05:04:18;15.00;87.80
10314;DHT22;5202;49.138;10.090;2022-08-14T05:06:49;15.00;88.20
10314;DHT22;5202;49.138;10.090;2022-08-14T05:09:20;15.20;88.10
10314;DHT22;5202;49.138;10.090;2022-08-14T05:11:50;15.30;89.20
10314;DHT22;5202;49.138;10.090;2022-08-14T05:14:19;15.40;89.00
10314;DHT22;5202;49.138;10.090;2022-08-14T05:17:08;15.50;89.20
10314;DHT22;5202;49.138;10.090;2022-08-14T05:19:38;15.60;89.60
10314;DHT22;5202;49.138;10.090;2022-08-14T05:22:27;15.70;89.10
10314;DHT22;5202;49.138;10.090;2022-08-14T05:24:55;15.80;88.70
10314;DHT22;5202;49.138;10.090;2022-08-14T05:27:24;15.90;89.10
10314;DHT22;5202;49.138;10.090;2022-08-14T05:29:57;15.90;89.50
10314;DHT22;5202;49.138;10.090;2022-08-14T05:32:26;16.00;89.90
10314;DHT22;5202;49.138;10.090;2022-08-14T05:34:57;16.10;90.00
10314;DHT22;5202;49.138;10.090;2022-08-14T05:37:27;16.20;90.10
10314;DHT22;5202;49.138;10.090;2022-08-14T05:39:58;16.30;89.80
10314;DHT22;5202;49.138;10.090;2022-08-14T05:42:28;16.40;89.30
10314;DHT22;5202;49.138;10.090;2022-08-14T05:44:59;16.50;89.00
10314;DHT22;5202;49.138;10.090;2022-08-14T05:47:30;16.60;89.30
10314;DHT22;5202;49.138;10.090;2022-08-14T05:50:12;16.80;89.60
10314;DHT22;5202;49.138;10.090;2022-08-14T05:52:46;17.00;89.40
10314;DHT22;5202;49.138;10.090;2022-08-14T05:55:17;17.30;89.10
10314;DHT22;5202;49.138;10.090;2022-08-14T05:57:53;17.50;89.20
10314;DHT22;5202;49.138;10.090;2022-08-14T06:00:28;17.70;89.40
10314;DHT22;5202;49.138;10.090;2022-08-14T06:03:06;17.80;89.90
10314;DHT22;5202;49.138;10.090;2022-08-14T06:05:38;18.00;90.10
10314;DHT22;5202;49.138;10.090;2022-08-14T06:08:13;18.20;90.00
10314;DHT22;5202;49.138;10.090;2022-08-14T06:11:04;18.30;90.40
10314;DHT22;5202;49.138;10.090;2022-08-14T06:13:35;18.50;90.30
10314;DHT22;5202;49.138;10.090;2022-08-14T06:16:14;18.70;90.00
10314;DHT22;5202;49.138;10.090;2022-08-14T06:18:45;18.70;90.10
10314;DHT22;5202;49.138;10.090;2022-08-14T06:21:20;18.80;90.20
10314;DHT22;5202;49.138;10.090;2022-08-14T06:23:49;19.00;90.50
10314;DHT22;5202;49.138;10.090;2022-08-14T06:26:17;19.20;90.60
10314;DHT22;5202;49.138;10.090;2022-08-14T06:28:48;19.40;90.30
10314;DHT22;5202;49.138;10.090;2022-08-14T06:31:18;19.50;90.00
10314;DHT22;5202;49.138;10.090;2022-08-14T06:33:48;19.70;89.80
10314;DHT22;5202;49.138;10.090;2022-08-14T06:36:38;19.90;89.60
10314;DHT22;5202;49.138;10.090;2022-08-14T06:39:07;20.10;88.70
10314;DHT22;5202;49.138;10.090;2022-08-14T06:41:37;20.10;88.30
10314;DHT22;5202;49.138;10.090;2022-08-14T06:44:50;20.30;88.10
10314;DHT22;5202;49.138;10.090;2022-08-14T06:47:19;20.40;87.40
10314;DHT22;5202;49.138;10.090;2022-08-14T06:49:49;20.50;87.00
10314;DHT22;5202;49.138;10.090;2022-08-14T06:52:25;20.60;86.60
10314;DHT22;5202;49.138;10.090;2022-08-14T06:54:55;20.80;85.70
10314;DHT22;5202;49.138;10.090;2022-08-14T06:57:25;20.90;85.20
10314;DHT22;5202;49.138;10.090;2022-08-14T07:00:04;21.00;84.30
10314;DHT22;5202;49.138;10.090;2022-08-14T07:02:48;21.10;83.70
10314;DHT22;5202;49.138;10.090;2022-08-14T07:05:38;21.20;84.20
10314;DHT22;5202;49.138;10.090;2022-08-14T07:08:27;21.40;82.90
10314;DHT22;5202;49.138;10.090;2022-08-14T07:10:59;21.50;83.00
10314;DHT22;5202;49.138;10.090;2022-08-14T07:13:30;21.60;81.90
10314;DHT22;5202;49.138;10.090;2022-08-14T07:15:58;21.80;80.50
10314;DHT22;5202;49.138;10.090;2022-08-14T07:18:33;22.00;80.80
10314;DHT22;5202;49.138;10.090;2022-08-14T07:21:07;22.10;79.30
10314;DHT22;5202;49.138;10.090;2022-08-14T07:23:37;22.20;78.90
10314;DHT22;5202;49.138;10.090;2022-08-14T07:26:10;22.40;78.00
10314;DHT22;5202;49.138;10.090;2022-08-14T07:28:40;22.50;77.10
10314;DHT22;5202;49.138;10.090;2022-08-14T07:31:11;22.70;76.60
10314;DHT22;5202;49.138;10.090;2022-08-14T07:33:44;22.90;77.80
10314;DHT22;5202;49.138;10.090;2022-08-14T07:36:18;23.00;77.10
10314;DHT22;5202;49.138;10.090;2022-08-14T07:38:57;23.20;76.30
10314;DHT22;5202;49.138;10.090;2022-08-14T07:41:26;23.30;76.00
10314;DHT22;5202;49.138;10.090;2022-08-14T07:44:00;23.50;76.00
10314;DHT22;5202;49.138;10.090;2022-08-14T07:46:48;23.60;74.80
10314;DHT22;5202;49.138;10.090;2022-08-14T07:49:17;23.70;73.40
10314;DHT22;5202;49.138;10.090;2022-08-14T07:51:49;23.80;73.00
10314;DHT22;5202;49.138;10.090;2022-08-14T07:54:19;23.90;72.30
10314;DHT22;5202;49.138;10.090;2022-08-14T07:56:56;24.00;70.40
10314;DHT22;5202;49.138;10.090;2022-08-14T07:59:26;24.20;69.00
10314;DHT22;5202;49.138;10.090;2022-08-14T08:02:14;24.30;68.50
10314;DHT22;5202;49.138;10.090;2022-08-14T08:04:47;24.40;66.50
10314;DHT22;5202;49.138;10.090;2022-08-14T08:07:21;24.50;65.80
10314;DHT22;5202;49.138;10.090;2022-08-14T08:09:59;24.60;65.30
10314;DHT22;5202;49.138;10.090;2022-08-14T08:13:13;24.70;65.30
10314;DHT22;5202;49.138;10.090;2022-08-14T08:15:45;24.90;64.50
10314;DHT22;5202;49.138;10.090;2022-08-14T08:18:15;25.00;64.20
10314;DHT22;5202;49.138;10.090;2022-08-14T08:20:55;25.20;64.90
10314;DHT22;5202;49.138;10.090;2022-08-14T08:23:26;25.30;61.30
10314;DHT22;5202;49.138;10.090;2022-08-14T08:26:07;25.40;61.60
10314;DHT22;5202;49.138;10.090;2022-08-14T08:28:36;25.50;60.10
10314;DHT22;5202;49.138;10.090;2022-08-14T08:31:09;25.60;59.90
10314;DHT22;5202;49.138;10.090;2022-08-14T08:33:40;25.70;60.00
10314;DHT22;5202;49.138;10.090;2022-08-14T08:36:15;25.70;59.50
10314;DHT22;5202;49.138;10.090;2022-08-14T08:38:46;25.90;59.30
10314;DHT22;5202;49.138;10.090;2022-08-14T08:41:41;26.00;59.50
10314;DHT22;5202;49.138;10.090;2022-08-14T08:44:11;26.10;58.50
10314;DHT22;5202;49.138;10.090;2022-08-14T08:46:58;26.20;57.90
10314;DHT22;5202;49.138;10.090;2022-08-14T08:49:39;26.40;58.40
10314;DHT22;5202;49.138;10.090;2022-08-14T08:52:25;26.50;58.30
10314;DHT22;5202;49.138;10.090;2022-08-14T08:54:58;26.60;56.80
10314;DHT22;5202;49.138;10.090;2022-08-14T08:57:33;26.80;56.50
10314;DHT22;5202;49.138;10.090;2022-08-14T09:00:12;26.90;54.70
10314;DHT22;5202;49.138;10.090;2022-08-14T09:02:53;27.00;54.60
10314;DHT22;5202;49.138;10.090;2022-08-14T09:05:24;27.20;54.40
10314;DHT22;5202;49.138;10.090;2022-08-14T09:07:53;27.30;53.10
10314;DHT22;5202;49.138;10.090;2022-08-14T09:10:22;27.40;51.90
10314;DHT22;5202;49.138;10.090;2022-08-14T09:12:54;27.60;52.60
10314;DHT22;5202;49.138;10.090;2022-08-14T09:15:23;27.60;51.90
10314;DHT22;5202;49.138;10.090;2022-08-14T09:18:02;27.70;51.50
10314;DHT22;5202;49.138;10.090;2022-08-14T09:20:31;27.70;52.00
10314;DHT22;5202;49.138;10.090;2022-08-14T09:23:03;27.80;52.40
10314;DHT22;5202;49.138;10.090;2022-08-14T09:25:33;27.90;52.70
10314;DHT22;5202;49.138;10.090;2022-08-14T09:28:23;28.10;51.90
10314;DHT22;5202;49.138;10.090;2022-08-14T09:30:53;28.10;50.40
10314;DHT22;5202;49.138;10.090;2022-08-14T09:33:48;28.10;51.30
10314;DHT22;5202;49.138;10.090;2022-08-14T09:36:51;28.20;51.60
10314;DHT22;5202;49.138;10.090;2022-08-14T09:39:45;28.30;50.90
10314;DHT22;5202;49.138;10.090;2022-08-14T09:42:34;28.10;50.40
10314;DHT22;5202;49.138;10.090;2022-08-14T09:45:19;28.00;50.40
10314;DHT22;5202;49.138;10.090;2022-08-14T09:47:50;28.10;51.30
10314;DHT22;5202;49.138;10.090;2022-08-14T09:50:23;28.20;50.40
10314;DHT22;5202;49.138;10.090;2022-08-14T09:52:56;28.30;50.50
10314;DHT22;5202;49.138;10.090;2022-08-14T09:55:29;28.30;49.90
10314;DHT22;5202;49.138;10.090;2022-08-14T09:58:09;28.40;50.20
10314;DHT22;5202;49.138;10.090;2022-08-14T10:00:48;28.40;49.10
10314;DHT22;5202;49.138;10.090;2022-08-14T10:03:27;28.50;49.80
10314;DHT22;5202;49.138;10.090;2022-08-14T10:06:08;28.60;48.60
10314;DHT22;5202;49.138;10.090;2022-08-14T10:08:44;28.70;49.50
10314;DHT22;5202;49.138;10.090;2022-08-14T10:11:20;28.90;50.40
10314;DHT22;5202;49.138;10.090;2022-08-14T10:13:51;29.00;49.70
10314;DHT22;5202;49.138;10.090;2022-08-14T10:16:26;29.10;50.00
10314;DHT22;5202;49.138;10.090;2022-08-14T10:19:08;29.20;49.70
10314;DHT22;5202;49.138;10.090;2022-08-14T10:21:41;29.30;48.90
10314;DHT22;5202;49.138;10.090;2022-08-14T10:24:35;29.30;48.80
10314;DHT22;5202;49.138;10.090;2022-08-14T10:27:13;29.20;48.20
10314;DHT22;5202;49.138;10.090;2022-08-14T10:29:47;29.30;49.00
10314;DHT22;5202;49.138;10.090;2022-08-14T10:32:18;29.30;49.30
10314;DHT22;5202;49.138;10.090;2022-08-14T10:35:05;29.30;48.40
10314;DHT22;5202;49.138;10.090;2022-08-14T10:37:41;29.40;49.60
10314;DHT22;5202;49.138;10.090;2022-08-14T10:40:16;29.60;49.40
10314;DHT22;5202;49.138;10.090;2022-08-14T10:43:18;29.80;48.70
10314;DHT22;5202;49.138;10.090;2022-08-14T10:45:57;29.90;48.30
10314;DHT22;5202;49.138;10.090;2022-08-14T10:49:00;30.00;48.30
10314;DHT22;5202;49.138;10.090;2022-08-14T10:51:31;30.00;47.20
10314;DHT22;5202;49.138;10.090;2022-08-14T10:54:07;29.90;47.50
10314;DHT22;5202;49.138;10.090;2022-08-14T10:56:56;29.90;47.90
10314;DHT22;5202;49.138;10.090;2022-08-14T10:59:25;30.10;47.80
10314;DHT22;5202;49.138;10.090;2022-08-14T11:02:16;30.20;47.80
10314;DHT22;5202;49.138;10.090;2022-08-14T11:05:07;30.40;47.70
10314;DHT22;5202;49.138;10.090;2022-08-14T11:07:49;30.30;46.50
10314;DHT22;5202;49.138;10.090;2022-08-14T11:10:37;30.20;47.10
10314;DHT22;5202;49.138;10.090;2022-08-14T11:13:13;30.30;47.40
10314;DHT22;5202;49.138;10.090;2022-08-14T11:15:43;30.50;46.70
10314;DHT22;5202;49.138;10.090;2022-08-14T11:18:12;30.60;45.80
10314;DHT22;5202;49.138;10.090;2022-08-14T11:20:59;30.70;46.10
10314;DHT22;5202;49.138;10.090;2022-08-14T11:23:29;30.60;45.50
10314;DHT22;5202;49.138;10.090;2022-08-14T11:26:07;30.60;46.70
10314;DHT22;5202;49.138;10.090;2022-08-14T11:28:38;30.80;45.50
10314;DHT22;5202;49.138;10.090;2022-08-14T11:31:17;30.90;44.60
10314;DHT22;5202;49.138;10.090;2022-08-14T11:33:49;30.90;43.80
10314;DHT22;5202;49.138;10.090;2022-08-14T11:36:27;31.10;44.40
10314;DHT22;5202;49.138;10.090;2022-08-14T11:39:19;31.30;44.10
10314;DHT22;5202;49.138;10.090;2022-08-14T11:42:03;31.20;44.20
10314;DHT22;5202;49.138;10.090;2022-08-14T11:44:56;31.50;45.50
10314;DHT22;5202;49.138;10.090;2022-08-14T11:47:27;31.70;45.40
10314;DHT22;5202;49.138;10.090;2022-08-14T11:50:17;31.80;45.50
10314;DHT22;5202;49.138;10.090;2022-08-14T11:53:06;31.90;45.40
10314;DHT22;5202;49.138;10.090;2022-08-14T11:55:39;31.80;44.60
10314;DHT22;5202;49.138;10.090;2022-08-14T11:58:09;31.90;44.40
10314;DHT22;5202;49.138;10.090;2022-08-14T12:00:51;32.00;44.00
10314;DHT22;5202;49.138;10.090;2022-08-14T12:03:21;32.00;43.00
10314;DHT22;5202;49.138;10.090;2022-08-14T12:06:11;32.10;43.60
10314;DHT22;5202;49.138;10.090;2022-08-14T12:09:02;32.10;43.10
10314;DHT22;5202;49.138;10.090;2022-08-14T12:11:42;32.20;43.20
10314;DHT22;5202;49.138;10.090;2022-08-14T12:14:17;32.40;43.80
10314;DHT22;5202;49.138;10.090;2022-08-14T12:16:58;32.60;43.50
10314;DHT22;5202;49.138;10.090;2022-08-14T12:19:28;32.60;43.50
10314;DHT22;5202;49.138;10.090;2022-08-14T12:22:01;32.50;43.70
10314;DHT22;5202;49.138;10.090;2022-08-14T12:24:33;32.50;43.40
10314;DHT22;5202;49.138;10.090;2022-08-14T12:27:06;32.70;43.70
10314;DHT22;5202;49.138;10.090;2022-08-14T12:29:35;32.80;42.90
10314;DHT22;5202;49.138;10.090;2022-08-14T12:32:06;32.90;42.60
10314;DHT22;5202;49.138;10.090;2022-08-14T12:34:38;32.80;42.20
10314;DHT22;5202;49.138;10.090;2022-08-14T12:37:11;32.80;42.30
10314;DHT22;5202;49.138;10.090;2022-08-14T12:39:40;32.80;41.90
10314;DHT22;5202;49.138;10.090;2022-08-14T12:42:09;32.90;41.50
10314;DHT22;5202;49.138;10.090;2022-08-14T12:44:57;33.10;40.80
10314;DHT22;5202;49.138;10.090;2022-08-14T12:47:30;33.40;41.60
10314;DHT22;5202;49.138;10.090;2022-08-14T12:49:59;33.50;40.50
10314;DHT22;5202;49.138;10.090;2022-08-14T12:52:31;33.50;40.60
10314;DHT22;5202;49.138;10.090;2022-08-14T12:55:21;33.30;39.70
10314;DHT22;5202;49.138;10.090;2022-08-14T12:58:09;33.30;41.20
10314;DHT22;5202;49.138;10.090;2022-08-14T13:00:59;33.30;40.40
10314;DHT22;5202;49.138;10.090;2022-08-14T13:03:44;33.50;41.30
10314;DHT22;5202;49.138;10.090;2022-08-14T13:06:18;33.80;40.70
10314;DHT22;5202;49.138;10.090;2022-08-14T13:08:50;33.80;40.40
10314;DHT22;5202;49.138;10.090;2022-08-14T13:11:35;33.90;40.90
10314;DHT22;5202;49.138;10.090;2022-08-14T13:14:11;33.90;39.90
10314;DHT22;5202;49.138;10.090;2022-08-14T13:16:44;34.00;39.60
10314;DHT22;5202;49.138;10.090;2022-08-14T13:19:17;34.20;39.70
10314;DHT22;5202;49.138;10.090;2022-08-14T13:21:51;34.30;38.10
10314;DHT22;5202;49.138;10.090;2022-08-14T13:24:37;34.40;38.30
10314;DHT22;5202;49.138;10.090;2022-08-14T13:27:07;34.30;38.10
10314;DHT22;5202;49.138;10.090;2022-08-14T13:29:40;34.40;38.90
10314;DHT22;5202;49.138;10.090;2022-08-14T13:32:13;34.60;38.00
10314;DHT22;5202;49.138;10.090;2022-08-14T13:34:43;34.80;37.00
10314;DHT22;5202;49.138;10.090;2022-08-14T13:37:15;34.60;36.50
10314;DHT22;5202;49.138;10.090;2022-08-14T13:39:48;34.50;36.80
10314;DHT22;5202;49.138;10.090;2022-08-14T13:42:26;34.00;37.00
10314;DHT22;5202;49.138;10.090;2022-08-14T13:44:58;33.90;39.30
10314;DHT22;5202;49.138;10.090;2022-08-14T13:47:29;34.20;38.70
10314;DHT22;5202;49.138;10.090;2022-08-14T13:50:00;34.40;36.90
10314;DHT22;5202;49.138;10.090;2022-08-14T13:52:33;34.40;36.40
10314;DHT22;5202;49.138;10.090;2022-08-14T13:55:21;34.60;37.10
10314;DHT22;5202;49.138;10.090;2022-08-14T13:57:57;34.30;36.10
10314;DHT22;5202;49.138;10.090;2022-08-14T14:00:31;34.50;37.00
10314;DHT22;5202;49.138;10.090;2022-08-14T14:03:50;34.60;36.80
10314;DHT22;5202;49.138;10.090;2022-08-14T14:06:32;34.40;35.80
10314;DHT22;5202;49.138;10.090;2022-08-14T14:09:01;34.20;36.10
10314;DHT22;5202;49.138;10.090;2022-08-14T14:11:30;34.30;37.50
10314;DHT22;5202;49.138;10.090;2022-08-14T14:14:01;34.50;36.90
10314;DHT22;5202;49.138;10.090;2022-08-14T14:16:30;34.50;37.00
10314;DHT22;5202;49.138;10.090;2022-08-14T14:18:59;34.30;36.60
10314;DHT22;5202;49.138;10.090;2022-08-14T14:21:36;34.00;36.90
10314;DHT22;5202;49.138;10.090;2022-08-14T14:24:08;33.90;37.20
10314;DHT22;5202;49.138;10.090;2022-08-14T14:26:44;33.90;37.30
10314;DHT22;5202;49.138;10.090;2022-08-14T14:29:18;34.00;36.60
10314;DHT22;5202;49.138;10.090;2022-08-14T14:31:52;34.20;37.10
10314;DHT22;5202;49.138;10.090;2022-08-14T14:34:25;34.30;37.60
10314;DHT22;5202;49.138;10.090;2022-08-14T14:36:57;34.50;36.70
10314;DHT22;5202;49.138;10.090;2022-08-14T14:39:30;34.70;36.60
10314;DHT22;5202;49.138;10.090;2022-08-14T14:42:20;34.50;35.00
10314;DHT22;5202;49.138;10.090;2022-08-14T14:45:03;34.40;35.00
10314;DHT22;5202;49.138;10.090;2022-08-14T14:47:35;34.00;33.60
10314;DHT22;5202;49.138;10.090;2022-08-14T14:50:04;34.10;34.90
10314;DHT22;5202;49.138;10.090;2022-08-14T14:52:34;33.50;34.50
10314;DHT22;5202;49.138;10.090;2022-08-14T14:55:07;33.00;35.60
10314;DHT22;5202;49.138;10.090;2022-08-14T14:57:43;32.90;35.90
10314;DHT22;5202;49.138;10.090;2022-08-14T15:00:22;32.90;36.60
10314;DHT22;5202;49.138;10.090;2022-08-14T15:02:56;33.20;36.70
10314;DHT22;5202;49.138;10.090;2022-08-14T15:05:25;33.50;35.70
10314;DHT22;5202;49.138;10.090;2022-08-14T15:07:54;33.60;35.00
10314;DHT22;5202;49.138;10.090;2022-08-14T15:10:23;33.10;35.00
10314;DHT22;5202;49.138;10.090;2022-08-14T15:13:00;33.00;36.50
10314;DHT22;5202;49.138;10.090;2022-08-14T15:15:31;32.90;36.70
10314;DHT22;5202;49.138;10.090;2022-08-14T15:18:04;33.10;36.80
10314;DHT22;5202;49.138;10.090;2022-08-14T15:20:54;33.10;36.30
10314;DHT22;5202;49.138;10.090;2022-08-14T15:23:24;32.90;36.70
10314;DHT22;5202;49.138;10.090;2022-08-14T15:26:11;32.70;36.60
10314;DHT22;5202;49.138;10.090;2022-08-14T15:28:59;32.90;37.00
10314;DHT22;5202;49.138;10.090;2022-08-14T15:31:34;32.90;36.60
10314;DHT22;5202;49.138;10.090;2022-08-14T15:34:04;32.90;36.50
10314;DHT22;5202;49.138;10.090;2022-08-14T15:37:01;32.90;36.60
10314;DHT22;5202;49.138;10.090;2022-08-14T15:39:31;32.90;36.60
10314;DHT22;5202;49.138;10.090;2022-08-14T15:42:04;32.80;36.00
10314;DHT22;5202;49.138;10.090;2022-08-14T15:44:43;32.70;35.90
10314;DHT22;5202;49.138;10.090;2022-08-14T15:47:29;32.50;36.20
10314;DHT22;5202;49.138;10.090;2022-08-14T15:50:00;32.10;36.30
10314;DHT22;5202;49.138;10.090;2022-08-14T15:52:31;32.00;37.10
10314;DHT22;5202;49.138;10.090;2022-08-14T15:55:06;31.90;37.40
10314;DHT22;5202;49.138;10.090;2022-08-14T15:57:41;31.80;38.00
10314;DHT22;5202;49.138;10.090;2022-08-14T16:00:29;31.80;38.70
10314;DHT22;5202;49.138;10.090;2022-08-14T16:03:17;31.90;38.60
10314;DHT22;5202;49.138;10.090;2022-08-14T16:06:02;32.10;38.50
10314;DHT22;5202;49.138;10.090;2022-08-14T16:08:37;32.10;38.60
10314;DHT22;5202;49.138;10.090;2022-08-14T16:11:07;32.10;39.00
10314;DHT22;5202;49.138;10.090;2022-08-14T16:13:36;32.00;38.80
10314;DHT22;5202;49.138;10.090;2022-08-14T16:16:11;32.00;38.80
10314;DHT22;5202;49.138;10.090;2022-08-14T16:19:03;32.00;38.80
10314;DHT22;5202;49.138;10.090;2022-08-14T16:21:38;31.90;39.00
10314;DHT22;5202;49.138;10.090;2022-08-14T16:24:29;31.80;39.00
10314;DHT22;5202;49.138;10.090;2022-08-14T16:27:21;31.70;39.10
10314;DHT22;5202;49.138;10.090;2022-08-14T16:30:10;31.70;39.60
10314;DHT22;5202;49.138;10.090;2022-08-14T16:32:54;31.50;39.60